createdAt,value
2022-11-05T00:00:23.925Z,1204
2022-11-05T00:01:23.935Z,942
2022-11-05T00:02:23.928Z,1016
2022-11-05T00:04:28.239Z,1265
2022-11-05T00:05:23.911Z,975
2022-11-05T00:06:23.890Z,966
2022-11-05T00:07:23.896Z,1172
2022-11-05T00:09:24.087Z,1185
2022-11-05T00:10:23.916Z,1179
2022-11-05T00:11:23.896Z,1285
2022-11-05T00:12:23.881Z,1194
2022-11-05T00:14:24.089Z,1169
2022-11-05T00:15:23.918Z,900
2022-11-05T00:16:23.889Z,1149
2022-11-05T00:17:23.918Z,924
2022-11-05T00:19:24.097Z,906
2022-11-05T00:20:23.971Z,981
2022-11-05T00:21:23.907Z,1229
2022-11-05T00:22:23.911Z,1229
2022-11-05T00:24:24.400Z,981
2022-11-05T00:25:23.895Z,1009
2022-11-05T00:26:23.895Z,1248
2022-11-05T00:27:23.919Z,990
2022-11-05T00:29:24.093Z,1018
2022-11-05T00:30:23.915Z,1201
2022-11-05T00:31:23.907Z,993
2022-11-05T00:32:23.889Z,1215
2022-11-05T00:34:24.091Z,1058
2022-11-05T00:35:23.913Z,1009
2022-11-05T00:36:23.919Z,1094
2022-11-05T00:37:23.896Z,1035
2022-11-05T00:39:24.087Z,1009
2022-11-05T00:40:23.897Z,1215
2022-11-05T00:41:23.921Z,985
2022-11-05T00:42:23.932Z,1331
2022-11-05T00:44:24.076Z,1207
2022-11-05T00:45:23.899Z,965
2022-11-05T00:46:23.926Z,1240
2022-11-05T00:47:23.931Z,1209
2022-11-05T00:49:24.085Z,1199
2022-11-05T00:50:23.926Z,1162
2022-11-05T00:51:23.918Z,974
2022-11-05T00:52:23.898Z,965
2022-11-05T00:54:24.112Z,1174
2022-11-05T00:55:23.899Z,1169
2022-11-05T00:56:23.934Z,945
2022-11-05T00:57:23.940Z,918
2022-11-05T00:59:24.121Z,1119
2022-11-05T01:00:23.935Z,1105
2022-11-05T01:01:24.017Z,895
2022-11-05T01:02:24.037Z,889
2022-11-05T01:04:24.112Z,897
2022-11-05T01:05:23.941Z,1121
2022-11-05T01:06:23.934Z,1152
2022-11-05T01:07:23.936Z,1105
2022-11-05T01:09:24.116Z,954
2022-11-05T01:10:23.965Z,1240
2022-11-05T01:11:23.905Z,947
2022-11-05T01:12:23.912Z,991
2022-11-05T01:14:24.146Z,985
2022-11-05T01:15:23.917Z,1188
2022-11-05T01:16:23.908Z,1174
2022-11-05T01:17:23.916Z,1232
2022-11-05T01:19:24.122Z,1229
2022-11-05T01:20:23.940Z,1237
2022-11-05T01:21:23.935Z,1090
2022-11-05T01:22:23.942Z,1185
2022-11-05T01:24:24.094Z,1234
2022-11-05T01:25:23.953Z,1085
2022-11-05T01:26:23.910Z,1265
2022-11-05T01:27:23.911Z,1359
2022-11-05T01:29:24.095Z,1242
2022-11-05T01:30:23.944Z,1174
2022-11-05T01:31:23.953Z,1530
2022-11-05T01:32:23.914Z,1133
2022-11-05T01:34:24.103Z,1196
2022-11-05T01:35:23.950Z,1007
2022-11-05T01:36:23.933Z,1141
2022-11-05T01:37:23.963Z,993
2022-11-05T01:39:24.107Z,1060
2022-11-05T01:40:23.957Z,1309
2022-11-05T01:41:23.947Z,1382
2022-11-05T01:42:23.957Z,1411
2022-11-05T01:44:24.131Z,1179
2022-11-05T01:45:23.953Z,1099
2022-11-05T01:46:23.933Z,1097
2022-11-05T01:47:23.947Z,1335
2022-11-05T01:49:24.137Z,1385
2022-11-05T01:50:23.947Z,1372
2022-11-05T01:51:23.958Z,1329
2022-11-05T01:52:23.922Z,1112
2022-11-05T01:54:24.146Z,1462
2022-11-05T01:55:23.930Z,1179
2022-11-05T01:56:23.975Z,1262
2022-11-05T01:57:23.962Z,1523
2022-11-05T01:59:24.133Z,1471
2022-11-05T02:00:23.985Z,1495
2022-11-05T02:01:23.992Z,1485
2022-11-05T02:02:24.051Z,1315
2022-11-05T02:04:24.110Z,1508
2022-11-05T02:05:23.974Z,1226
2022-11-05T02:06:23.952Z,1485
2022-11-05T02:07:23.978Z,1232
2022-11-05T02:09:24.114Z,1288
2022-11-05T02:10:23.955Z,1378
2022-11-05T02:11:23.968Z,1001
2022-11-05T02:12:23.967Z,1657
2022-11-05T02:14:24.114Z,1715
2022-11-05T02:15:23.937Z,1749
2022-11-05T02:16:23.965Z,1401
2022-11-05T02:17:23.971Z,1389
2022-11-05T02:19:24.147Z,1451
2022-11-05T02:20:23.970Z,1455
2022-11-05T02:21:24.014Z,1382
2022-11-05T02:22:23.951Z,1715
2022-11-05T02:24:24.146Z,1759
2022-11-05T02:25:23.965Z,1458
2022-11-05T02:26:23.986Z,1737
2022-11-05T02:27:23.940Z,1864
2022-11-05T02:29:24.144Z,1963
2022-11-05T02:30:23.969Z,1505
2022-11-05T02:31:23.955Z,1749
2022-11-05T02:32:23.946Z,1526
2022-11-05T02:34:24.146Z,1900
2022-11-05T02:35:23.945Z,1953
2022-11-05T02:36:23.973Z,1411
2022-11-05T02:37:23.948Z,1523
2022-11-05T02:39:24.155Z,1958
2022-11-05T02:40:23.982Z,1982
2022-11-05T02:41:23.940Z,1900
2022-11-05T02:42:24.019Z,1839
2022-11-05T02:44:24.156Z,1657
2022-11-05T02:45:23.956Z,1891
2022-11-05T02:46:23.987Z,1657
2022-11-05T02:47:23.969Z,2180
2022-11-05T02:49:24.127Z,1671
2022-11-05T02:50:23.960Z,1440
2022-11-05T02:51:23.981Z,1597
2022-11-05T02:52:24.037Z,2078
2022-11-05T02:54:24.156Z,2132
2022-11-05T02:55:23.957Z,1891
2022-11-05T02:56:23.969Z,1744
2022-11-05T02:57:23.984Z,2351
2022-11-05T02:59:24.147Z,1843
2022-11-05T03:00:23.987Z,1725
2022-11-05T03:01:24.036Z,2276
2022-11-05T03:02:24.135Z,2746
2022-11-05T03:04:24.144Z,1715
2022-11-05T03:05:23.989Z,2216
2022-11-05T03:06:23.960Z,1683
2022-11-05T03:07:23.961Z,2180
2022-11-05T03:09:24.174Z,2158
2022-11-05T03:10:23.988Z,2727
2022-11-05T03:11:23.989Z,2060
2022-11-05T03:12:23.955Z,2216
2022-11-05T03:14:24.183Z,2180
2022-11-05T03:15:23.991Z,2158
2022-11-05T03:16:23.999Z,2084
2022-11-05T03:17:24.014Z,2170
2022-11-05T03:19:24.153Z,2197
2022-11-05T03:20:23.983Z,2197
2022-11-05T03:21:23.969Z,1835
2022-11-05T03:22:24.034Z,1891
2022-11-05T03:24:24.176Z,1815
2022-11-05T03:25:23.997Z,1835
2022-11-05T03:26:24.001Z,1835
2022-11-05T03:27:23.972Z,2244
2022-11-05T03:29:24.173Z,2315
2022-11-05T03:30:23.990Z,1868
2022-11-05T03:31:24.001Z,1831
2022-11-05T03:32:23.993Z,2158
2022-11-05T03:34:24.168Z,2118
2022-11-05T03:35:23.974Z,1653
2022-11-05T03:36:23.976Z,1848
2022-11-05T03:37:23.979Z,1859
2022-11-05T03:39:24.181Z,1896
2022-11-05T03:40:24.003Z,1922
2022-11-05T03:41:24.012Z,1927
2022-11-05T03:42:23.976Z,2017
2022-11-05T03:44:24.185Z,1905
2022-11-05T03:45:23.989Z,1848
2022-11-05T03:46:23.972Z,1855
2022-11-05T03:47:23.991Z,2257
2022-11-05T03:49:24.166Z,1855
2022-11-05T03:50:23.994Z,2142
2022-11-05T03:51:24.006Z,2162
2022-11-05T03:52:23.972Z,1756
2022-11-05T03:54:24.193Z,2022
2022-11-05T03:55:23.990Z,2238
2022-11-05T03:56:24.010Z,2280
2022-11-05T03:57:24.019Z,2280
2022-11-05T03:59:24.198Z,1851
2022-11-05T04:00:24.069Z,2482
2022-11-05T04:01:24.069Z,1977
2022-11-05T04:02:24.207Z,1977
2022-11-05T04:04:24.163Z,2180
2022-11-05T04:05:24.019Z,1900
2022-11-05T04:06:24.001Z,2060
2022-11-05T04:07:23.986Z,2459
2022-11-05T04:09:24.168Z,2014
2022-11-05T04:10:23.988Z,2122
2022-11-05T04:11:24.012Z,2514
2022-11-05T04:12:24.018Z,2556
2022-11-05T04:14:24.189Z,2409
2022-11-05T04:15:24.006Z,2249
2022-11-05T04:16:24.026Z,2306
2022-11-05T04:17:24.008Z,2306
2022-11-05T04:19:26.214Z,1896
2022-11-05T04:20:24.039Z,1936
2022-11-05T04:21:24.022Z,1936
2022-11-05T04:22:24.032Z,1835
2022-11-05T04:24:24.225Z,1922
2022-11-05T04:25:23.989Z,1948
2022-11-05T04:26:23.991Z,2022
2022-11-05T04:27:24.021Z,2469
2022-11-05T04:29:24.212Z,2497
2022-11-05T04:30:24.013Z,2520
2022-11-05T04:31:23.997Z,2060
2022-11-05T04:32:24.006Z,2032
2022-11-05T04:34:24.191Z,2026
2022-11-05T04:35:24.000Z,2060
2022-11-05T04:36:24.028Z,2514
2022-11-05T04:37:24.000Z,2409
2022-11-05T04:39:24.194Z,2514
2022-11-05T04:40:24.023Z,2454
2022-11-05T04:41:24.006Z,2078
2022-11-05T04:42:24.020Z,2549
2022-11-05T04:44:24.185Z,2469
2022-11-05T04:45:24.009Z,2072
2022-11-05T04:46:24.011Z,2539
2022-11-05T04:47:24.050Z,2106
2022-11-05T04:49:24.215Z,2539
2022-11-05T04:50:24.010Z,2487
2022-11-05T04:51:24.021Z,2492
2022-11-05T04:52:24.011Z,2152
2022-11-05T04:54:24.209Z,2106
2022-11-05T04:55:24.006Z,1982
2022-11-05T04:56:24.019Z,2610
2022-11-05T04:57:24.030Z,2146
2022-11-05T04:59:24.183Z,1864
2022-11-05T05:00:24.070Z,1626
2022-11-05T05:01:24.080Z,1478
2022-11-05T05:02:24.035Z,1977
2022-11-05T05:04:24.212Z,2610
2022-11-05T05:05:24.012Z,2520
2022-11-05T05:06:24.019Z,2180
2022-11-05T05:07:24.062Z,2581
2022-11-05T05:09:24.210Z,2689
2022-11-05T05:10:24.071Z,1973
2022-11-05T05:11:24.009Z,2054
2022-11-05T05:12:24.038Z,2004
2022-11-05T05:14:24.193Z,1982
2022-11-05T05:15:24.040Z,2487
2022-11-05T05:16:24.017Z,2421
2022-11-05T05:17:24.022Z,2026
2022-11-05T05:19:24.247Z,2112
2022-11-05T05:20:24.040Z,2603
2022-11-05T05:21:24.045Z,2072
2022-11-05T05:22:24.015Z,1526
2022-11-05T05:24:24.229Z,1977
2022-11-05T05:25:24.036Z,1792
2022-11-05T05:26:24.037Z,2269
2022-11-05T05:27:24.021Z,2586
2022-11-05T05:29:24.203Z,2469
2022-11-05T05:30:24.044Z,2946
2022-11-05T05:31:24.044Z,2238
2022-11-05T05:32:24.050Z,2697
2022-11-05T05:34:24.230Z,2434
2022-11-05T05:35:24.054Z,2146
2022-11-05T05:36:24.031Z,2306
2022-11-05T05:37:24.029Z,2812
2022-11-05T05:39:24.231Z,2919
2022-11-05T05:40:24.018Z,3006
2022-11-05T05:41:24.038Z,2704
2022-11-05T05:42:24.024Z,2406
2022-11-05T05:44:24.224Z,2399
2022-11-05T05:45:24.049Z,1982
2022-11-05T05:46:24.025Z,1927
2022-11-05T05:47:24.060Z,2574
2022-11-05T05:49:24.245Z,2652
2022-11-05T05:50:24.058Z,2581
2022-11-05T05:51:24.040Z,2586
2022-11-05T05:52:24.027Z,2146
2022-11-05T05:54:27.660Z,2361
2022-11-05T05:55:24.057Z,2454
2022-11-05T05:56:24.058Z,2166
2022-11-05T05:57:24.053Z,2136
2022-11-05T05:59:24.253Z,2844
2022-11-05T06:00:24.057Z,2586
2022-11-05T06:01:24.133Z,2357
2022-11-05T06:02:24.197Z,2704
2022-11-05T06:04:24.242Z,2869
2022-11-05T06:05:24.072Z,2666
2022-11-05T06:06:24.065Z,2497
2022-11-05T06:07:24.039Z,2064
2022-11-05T06:09:24.216Z,2126
2022-11-05T06:10:24.142Z,2257
2022-11-05T06:11:24.074Z,2334
2022-11-05T06:12:24.098Z,2232
2022-11-05T06:14:24.222Z,2257
2022-11-05T06:15:24.050Z,2727
2022-11-05T06:16:24.062Z,2610
2022-11-05T06:17:24.099Z,2185
2022-11-05T06:19:24.259Z,2162
2022-11-05T06:20:24.069Z,2684
2022-11-05T06:21:24.065Z,2249
2022-11-05T06:22:24.077Z,2794
2022-11-05T06:24:24.226Z,2469
2022-11-05T06:25:24.043Z,2185
2022-11-05T06:26:24.042Z,2603
2022-11-05T06:27:24.082Z,2768
2022-11-05T06:29:24.252Z,2987
2022-11-05T06:30:24.051Z,2180
2022-11-05T06:31:24.071Z,2844
2022-11-05T06:32:24.052Z,2739
2022-11-05T06:34:24.247Z,2255
2022-11-05T06:35:24.059Z,2315
2022-11-05T06:36:24.067Z,2334
2022-11-05T06:37:24.060Z,1427
2022-11-05T06:39:24.257Z,2927
2022-11-05T06:40:24.079Z,2170
2022-11-05T06:41:24.088Z,2794
2022-11-05T06:42:24.084Z,2812
2022-11-05T06:44:24.248Z,2289
2022-11-05T06:45:24.074Z,2820
2022-11-05T06:46:24.080Z,2953
2022-11-05T06:47:24.119Z,2844
2022-11-05T06:49:24.260Z,2919
2022-11-05T06:50:24.080Z,2953
2022-11-05T06:51:24.064Z,2334
2022-11-05T06:52:24.076Z,2661
2022-11-05T06:54:24.267Z,2421
2022-11-05T06:55:24.094Z,3021
2022-11-05T06:56:24.113Z,2618
2022-11-05T06:57:24.074Z,3098
2022-11-05T06:59:24.234Z,3134
2022-11-05T07:00:24.096Z,3035
2022-11-05T07:01:24.200Z,2961
2022-11-05T07:02:24.173Z,2428
2022-11-05T07:04:24.268Z,1756
2022-11-05T07:05:24.068Z,3143
2022-11-05T07:06:24.097Z,2442
2022-11-05T07:07:24.091Z,2987
2022-11-05T07:09:24.278Z,3035
2022-11-05T07:10:24.072Z,2852
2022-11-05T07:11:24.081Z,2697
2022-11-05T07:12:24.092Z,2166
2022-11-05T07:14:24.245Z,2674
2022-11-05T07:15:24.099Z,2898
2022-11-05T07:16:24.092Z,2334
2022-11-05T07:17:24.063Z,2864
2022-11-05T07:19:24.252Z,3116
2022-11-05T07:20:24.064Z,2877
2022-11-05T07:21:24.105Z,2689
2022-11-05T07:22:24.096Z,3408
2022-11-05T07:24:24.257Z,3479
2022-11-05T07:25:24.083Z,3369
2022-11-05T07:26:24.096Z,2746
2022-11-05T07:27:24.109Z,3632
2022-11-05T07:29:24.275Z,2801
2022-11-05T07:30:24.087Z,2927
2022-11-05T07:31:24.096Z,2837
2022-11-05T07:32:24.104Z,2927
2022-11-05T07:34:24.260Z,3532
2022-11-05T07:35:24.070Z,2684
2022-11-05T07:36:24.103Z,2768
2022-11-05T07:37:24.109Z,2820
2022-11-05T07:39:24.284Z,2176
2022-11-05T07:40:24.075Z,2610
2022-11-05T07:41:24.076Z,2652
2022-11-05T07:42:24.110Z,2678
2022-11-05T07:44:24.288Z,2704
2022-11-05T07:45:24.105Z,3462
2022-11-05T07:46:24.109Z,3492
2022-11-05T07:47:24.118Z,2674
2022-11-05T07:49:24.257Z,3408
2022-11-05T07:50:24.097Z,2684
2022-11-05T07:51:24.086Z,2760
2022-11-05T07:52:24.091Z,3607
2022-11-05T07:54:24.259Z,2953
2022-11-05T07:55:24.090Z,3176
2022-11-05T07:56:24.113Z,3825
2022-11-05T07:57:24.113Z,3542
2022-11-05T07:59:24.292Z,3509
2022-11-05T08:00:24.105Z,3702
2022-11-05T08:01:24.164Z,2858
2022-11-05T08:02:24.281Z,2852
2022-11-05T08:04:24.294Z,3734
2022-11-05T08:05:24.097Z,3791
2022-11-05T08:06:24.089Z,3884
2022-11-05T08:07:24.086Z,3080
2022-11-05T08:09:24.292Z,3632
2022-11-05T08:10:24.112Z,2864
2022-11-05T08:11:24.090Z,2812
2022-11-05T08:12:24.105Z,3592
2022-11-05T08:14:24.289Z,3057
2022-11-05T08:15:24.125Z,3684
2022-11-05T08:16:24.119Z,3861
2022-11-05T08:17:24.121Z,2999
2022-11-05T08:19:24.299Z,3234
2022-11-05T08:20:24.128Z,3850
2022-11-05T08:21:24.099Z,3744
2022-11-05T08:22:24.125Z,3098
2022-11-05T08:24:24.307Z,2852
2022-11-05T08:25:24.173Z,2562
2022-11-05T08:26:24.126Z,3625
2022-11-05T08:27:24.117Z,2883
2022-11-05T08:29:24.336Z,3625
2022-11-05T08:30:24.128Z,3098
2022-11-05T08:31:24.135Z,3098
2022-11-05T08:32:24.126Z,3884
2022-11-05T08:34:24.315Z,2999
2022-11-05T08:35:24.125Z,2905
2022-11-05T08:36:24.109Z,3702
2022-11-05T08:37:24.108Z,2593
2022-11-05T08:39:24.312Z,3734
2022-11-05T08:40:24.138Z,2979
2022-11-05T08:41:24.119Z,2927
2022-11-05T08:42:24.126Z,3642
2022-11-05T08:44:24.288Z,2864
2022-11-05T08:45:24.096Z,3015
2022-11-05T08:46:24.126Z,3128
2022-11-05T08:47:24.104Z,3006
2022-11-05T08:49:24.318Z,3727
2022-11-05T08:50:24.168Z,3453
2022-11-05T08:51:24.114Z,3582
2022-11-05T08:52:24.122Z,3492
2022-11-05T08:54:24.315Z,2864
2022-11-05T08:55:24.150Z,3057
2022-11-05T08:56:24.132Z,3549
2022-11-05T08:57:24.140Z,2864
2022-11-05T08:59:24.290Z,3642
2022-11-05T09:00:24.190Z,3227
2022-11-05T09:01:24.197Z,3182
2022-11-05T09:02:24.284Z,2919
2022-11-05T09:04:24.331Z,3783
2022-11-05T09:05:24.107Z,4110
2022-11-05T09:06:24.139Z,4060
2022-11-05T09:07:24.123Z,3499
2022-11-05T09:09:24.296Z,4110
2022-11-05T09:10:24.167Z,3842
2022-11-05T09:11:33.120Z,3006
2022-11-05T09:12:24.129Z,4072
2022-11-05T09:14:24.327Z,4347
2022-11-05T09:15:24.147Z,3149
2022-11-05T09:16:24.154Z,3182
2022-11-05T09:17:24.121Z,4347
2022-11-05T09:19:24.303Z,4003
2022-11-05T09:20:24.213Z,3255
2022-11-05T09:21:24.117Z,3203
2022-11-05T09:22:24.114Z,4457
2022-11-05T09:24:24.327Z,3375
2022-11-05T09:25:24.141Z,4543
2022-11-05T09:26:24.151Z,4110
2022-11-05T09:27:24.133Z,5001
2022-11-05T09:29:24.307Z,3434
2022-11-05T09:30:24.164Z,3712
2022-11-05T09:31:24.163Z,4648
2022-11-05T09:32:24.134Z,3143
2022-11-05T09:34:24.549Z,3923
2022-11-05T09:35:24.127Z,4254
2022-11-05T09:36:24.134Z,3563
2022-11-05T09:37:24.168Z,4110
2022-11-05T09:39:24.312Z,3941
2022-11-05T09:40:24.190Z,4023
2022-11-05T09:41:24.149Z,4335
2022-11-05T09:42:24.140Z,3592
2022-11-05T09:44:24.329Z,4150
2022-11-05T09:45:24.156Z,3403
2022-11-05T09:46:24.173Z,3988
2022-11-05T09:47:24.161Z,3434
2022-11-05T09:49:24.314Z,4347
2022-11-05T09:50:24.143Z,3277
2022-11-05T09:51:24.433Z,3277
2022-11-05T09:52:24.166Z,3340
2022-11-05T09:54:24.310Z,3999
2022-11-05T09:55:24.128Z,3988
2022-11-05T09:56:24.200Z,3727
2022-11-05T09:57:24.134Z,3556
2022-11-05T09:59:24.341Z,3884
2022-11-05T10:00:24.144Z,3674
2022-11-05T10:01:24.261Z,4254
2022-11-05T10:02:24.180Z,3988
2022-11-05T10:04:24.318Z,3988
2022-11-05T10:05:24.168Z,4435
2022-11-05T10:06:24.189Z,4850
2022-11-05T10:07:24.169Z,5663
2022-11-05T10:09:24.357Z,4102
2022-11-05T10:10:24.201Z,4142
2022-11-05T10:11:24.140Z,4427
2022-11-05T10:12:24.139Z,4278
2022-11-05T10:14:24.356Z,4698
2022-11-05T10:15:24.182Z,5167
2022-11-05T10:16:24.176Z,4793
2022-11-05T10:17:24.176Z,4725
2022-11-05T10:19:24.523Z,4840
2022-11-05T10:20:24.152Z,3952
2022-11-05T10:21:38.035Z,5060
2022-11-05T10:22:24.183Z,5338
2022-11-05T10:24:24.351Z,4072
2022-11-05T10:25:24.178Z,4210
2022-11-05T10:26:24.162Z,5182
2022-11-05T10:27:24.169Z,3979
2022-11-05T10:29:24.352Z,4675
2022-11-05T10:30:24.177Z,3752
2022-11-05T10:31:24.179Z,4246
2022-11-05T10:32:24.173Z,5242
2022-11-05T10:34:24.350Z,5121
2022-11-05T10:35:24.175Z,5767
2022-11-05T10:36:24.172Z,3979
2022-11-05T10:37:24.174Z,4954
2022-11-05T10:39:24.337Z,5338
2022-11-05T10:40:24.167Z,4470
2022-11-05T10:41:24.185Z,5712
2022-11-05T10:42:24.173Z,3842
2022-11-05T10:44:24.355Z,4761
2022-11-05T10:45:24.188Z,4684
2022-11-05T10:46:24.179Z,4925
2022-11-05T10:47:24.165Z,4698
2022-11-05T10:49:24.367Z,4864
2022-11-05T10:50:24.193Z,4945
2022-11-05T10:51:24.157Z,3999
2022-11-05T10:52:24.201Z,4335
2022-11-05T10:54:24.374Z,3563
2022-11-05T10:55:24.193Z,5036
2022-11-05T10:56:24.188Z,4826
2022-11-05T10:57:24.249Z,4648
2022-11-05T10:59:24.364Z,3806
2022-11-05T11:00:24.188Z,4945
2022-11-05T11:01:24.285Z,5327
2022-11-05T11:02:24.237Z,3934
2022-11-05T11:04:24.399Z,3509
2022-11-05T11:05:24.192Z,4198
2022-11-05T11:06:24.191Z,4347
2022-11-05T11:07:24.182Z,4335
2022-11-05T11:09:24.387Z,4698
2022-11-05T11:10:24.179Z,4534
2022-11-05T11:11:24.186Z,4158
2022-11-05T11:12:24.170Z,4158
2022-11-05T11:14:24.368Z,3916
2022-11-05T11:15:24.164Z,4360
2022-11-05T11:16:24.178Z,3356
2022-11-05T11:17:24.181Z,3549
2022-11-05T11:19:24.384Z,3356
2022-11-05T11:20:24.171Z,4608
2022-11-05T11:21:24.183Z,4479
2022-11-05T11:22:24.186Z,3684
2022-11-05T11:24:24.384Z,3923
2022-11-05T11:25:24.200Z,3227
2022-11-05T11:26:24.182Z,3472
2022-11-05T11:27:24.208Z,4716
2022-11-05T11:29:24.384Z,4988
2022-11-05T11:30:24.185Z,3601
2022-11-05T11:31:24.206Z,4626
2022-11-05T11:32:24.198Z,4698
2022-11-05T11:34:24.377Z,4698
2022-11-05T11:35:24.206Z,4968
2022-11-05T11:36:24.174Z,5142
2022-11-05T11:37:24.181Z,3916
2022-11-05T11:39:24.365Z,3518
2022-11-05T11:40:24.189Z,4573
2022-11-05T11:41:24.203Z,5262
2022-11-05T11:42:24.241Z,4286
2022-11-05T11:44:24.392Z,3752
2022-11-05T11:45:24.184Z,4278
2022-11-05T11:46:24.215Z,4492
2022-11-05T11:47:24.179Z,3791
2022-11-05T11:49:24.366Z,3734
2022-11-05T11:50:24.219Z,4840
2022-11-05T11:51:24.213Z,3607
2022-11-05T11:52:24.215Z,3542
2022-11-05T11:54:28.586Z,3895
2022-11-05T11:55:24.189Z,4684
2022-11-05T11:56:24.182Z,4752
2022-11-05T11:57:24.207Z,4968
2022-11-05T11:59:35.334Z,3702
2022-11-05T12:00:24.214Z,3999
2022-11-05T12:01:24.235Z,4826
2022-11-05T12:02:24.334Z,3817
2022-11-05T12:04:24.394Z,4850
2022-11-05T12:05:24.224Z,3979
2022-11-05T12:06:24.240Z,3905
2022-11-05T12:07:24.202Z,3868
2022-11-05T12:09:24.384Z,3868
2022-11-05T12:10:24.189Z,3772
2022-11-05T12:11:24.188Z,4684
2022-11-05T12:12:24.214Z,4648
2022-11-05T12:14:24.405Z,5121
2022-11-05T12:15:24.222Z,4771
2022-11-05T12:16:24.192Z,5060
2022-11-05T12:17:24.197Z,3934
2022-11-05T12:19:24.397Z,4003
2022-11-05T12:20:24.228Z,4725
2022-11-05T12:21:40.958Z,5277
2022-11-05T12:22:24.222Z,5378
2022-11-05T12:24:24.372Z,4716
2022-11-05T12:25:24.199Z,4850
2022-11-05T12:26:24.204Z,5582
2022-11-05T12:27:24.213Z,3618
2022-11-05T12:29:24.412Z,4661
2022-11-05T12:30:24.232Z,5414
2022-11-05T12:31:24.218Z,5872
2022-11-05T12:32:24.287Z,5515
2022-11-05T12:34:24.381Z,4427
2022-11-05T12:35:24.218Z,5663
2022-11-05T12:36:24.238Z,5070
2022-11-05T12:37:24.238Z,6530
2022-11-05T12:39:24.412Z,4254
2022-11-05T12:40:24.212Z,5327
2022-11-05T12:41:24.208Z,4661
2022-11-05T12:42:24.217Z,3259
2022-11-05T12:44:24.445Z,5476
2022-11-05T12:45:24.209Z,4014
2022-11-05T12:46:24.259Z,4504
2022-11-05T12:47:24.205Z,4377
2022-11-05T12:49:24.388Z,3702
2022-11-05T12:50:24.219Z,4586
2022-11-05T12:51:24.227Z,3642
2022-11-05T12:52:24.258Z,3215
2022-11-05T12:54:24.421Z,3167
2022-11-05T12:55:24.234Z,3709
2022-11-05T12:56:24.234Z,3622
2022-11-05T12:57:24.247Z,4063
2022-11-05T12:59:24.431Z,3723
2022-11-05T13:00:24.228Z,4102
2022-11-05T13:01:24.360Z,5112
2022-11-05T13:02:24.265Z,3315
2022-11-05T13:04:24.420Z,3343
2022-11-05T13:05:24.232Z,4661
2022-11-05T13:06:24.225Z,4307
2022-11-05T13:07:24.240Z,3883
2022-11-05T13:09:24.430Z,3652
2022-11-05T13:10:24.216Z,3023
2022-11-05T13:11:24.255Z,3188
2022-11-05T13:12:24.251Z,3926
2022-11-05T13:14:24.411Z,3835
2022-11-05T13:15:24.279Z,4470
2022-11-05T13:16:24.238Z,3873
2022-11-05T13:17:24.243Z,4715
2022-11-05T13:19:24.427Z,3516
2022-11-05T13:20:24.248Z,3343
2022-11-05T13:21:24.255Z,4053
2022-11-05T13:22:24.225Z,3652
2022-11-05T13:24:24.454Z,3372
2022-11-05T13:25:24.246Z,3258
2022-11-05T13:26:24.222Z,3751
2022-11-05T13:27:24.278Z,3431
2022-11-05T13:29:24.439Z,3873
2022-11-05T13:30:24.221Z,3057
2022-11-05T13:31:24.250Z,3057
2022-11-05T13:32:24.273Z,4053
2022-11-05T13:34:24.437Z,3817
2022-11-05T13:35:24.239Z,3209
2022-11-05T13:36:24.228Z,3305
2022-11-05T13:37:24.243Z,4150
2022-11-05T13:39:24.413Z,3958
2022-11-05T13:40:24.231Z,3268
2022-11-05T13:41:24.244Z,2900
2022-11-05T13:42:24.243Z,2770
2022-11-05T13:44:24.420Z,2993
2022-11-05T13:45:24.260Z,3835
2022-11-05T13:46:24.237Z,3741
2022-11-05T13:47:24.273Z,3385
2022-11-05T13:49:24.448Z,3958
2022-11-05T13:50:24.243Z,3110
2022-11-05T13:51:24.260Z,3542
2022-11-05T13:52:24.233Z,3001
2022-11-05T13:54:24.444Z,3865
2022-11-05T13:55:24.275Z,4315
2022-11-05T13:56:24.250Z,3773
2022-11-05T13:57:24.266Z,4045
2022-11-05T13:59:24.466Z,3553
2022-11-05T14:00:24.257Z,3152
2022-11-05T14:01:24.389Z,4045
2022-11-05T14:02:24.318Z,4083
2022-11-05T14:04:24.449Z,4083
2022-11-05T14:05:24.241Z,3095
2022-11-05T14:06:24.278Z,3692
2022-11-05T14:07:24.278Z,3095
2022-11-05T14:09:24.442Z,3110
2022-11-05T14:10:24.270Z,3268
2022-11-05T14:11:24.262Z,3152
2022-11-05T14:12:24.244Z,3110
2022-11-05T14:14:24.443Z,3857
2022-11-05T14:15:24.296Z,3122
2022-11-05T14:16:24.283Z,2900
2022-11-05T14:17:24.243Z,3001
2022-11-05T14:19:24.457Z,3891
2022-11-05T14:20:24.280Z,3945
2022-11-05T14:21:24.262Z,4410
2022-11-05T14:22:24.269Z,4266
2022-11-05T14:24:24.472Z,4457
2022-11-05T14:25:24.265Z,3030
2022-11-05T14:26:24.249Z,3842
2022-11-05T14:27:24.278Z,5112
2022-11-05T14:29:24.458Z,3008
2022-11-05T14:30:24.285Z,3200
2022-11-05T14:31:35.864Z,3952
2022-11-05T14:32:24.249Z,5125
2022-11-05T14:34:24.463Z,3502
2022-11-05T14:35:24.293Z,4784
2022-11-05T14:36:24.253Z,4238
2022-11-05T14:37:24.281Z,4752
2022-11-05T14:39:24.457Z,3343
2022-11-05T14:40:24.285Z,4352
2022-11-05T14:41:24.291Z,4538
2022-11-05T14:42:24.286Z,3857
2022-11-05T14:44:24.474Z,4298
2022-11-05T14:45:24.332Z,4364
2022-11-05T14:46:24.291Z,4922
2022-11-05T14:47:24.333Z,5157
2022-11-05T14:49:24.470Z,3182
2022-11-05T14:50:24.336Z,3635
2022-11-05T14:51:24.292Z,3614
2022-11-05T14:52:24.277Z,4793
2022-11-05T14:54:24.480Z,3891
2022-11-05T14:55:24.336Z,4389
2022-11-05T14:56:24.305Z,3642
2022-11-05T14:57:24.279Z,3731
2022-11-05T14:59:24.467Z,4134
2022-11-05T15:00:24.326Z,3799
2022-11-05T15:01:24.343Z,3784
2022-11-05T15:02:24.427Z,4538
2022-11-05T15:04:24.553Z,4617
2022-11-05T15:05:24.269Z,4246
2022-11-05T15:06:24.268Z,4134
2022-11-05T15:07:24.268Z,5202
2022-11-05T15:09:24.448Z,5646
2022-11-05T15:10:24.309Z,4102
2022-11-05T15:11:24.270Z,3883
2022-11-05T15:12:24.296Z,4916
2022-11-05T15:14:24.480Z,4102
2022-11-05T15:15:24.305Z,5202
2022-11-05T15:16:24.281Z,4238
2022-11-05T15:17:24.324Z,4715
2022-11-05T15:19:24.482Z,5182
2022-11-05T15:20:24.282Z,4721
2022-11-05T15:21:24.306Z,3674
2022-11-05T15:22:24.299Z,4936
2022-11-05T15:24:24.488Z,5101
2022-11-05T15:25:24.272Z,5147
2022-11-05T15:26:24.306Z,5182
2022-11-05T15:27:24.309Z,5147
2022-11-05T15:29:24.483Z,4122
2022-11-05T15:30:24.288Z,5182
2022-11-05T15:31:24.289Z,5414
2022-11-05T15:32:24.304Z,5101
2022-11-05T15:34:24.486Z,4661
2022-11-05T15:35:24.282Z,4166
2022-11-05T15:36:24.292Z,4166
2022-11-05T15:37:24.305Z,4003
2022-11-05T15:39:29.273Z,5147
2022-11-05T15:40:24.312Z,5012
2022-11-05T15:41:24.277Z,4936
2022-11-05T15:42:24.311Z,4721
2022-11-05T15:44:24.496Z,5257
2022-11-05T15:45:24.316Z,5615
2022-11-05T15:46:24.327Z,5001
2022-11-05T15:47:24.314Z,4661
2022-11-05T15:49:24.469Z,4491
2022-11-05T15:50:24.290Z,4315
2022-11-05T15:51:24.321Z,4500
2022-11-05T15:52:24.291Z,5471
2022-11-05T15:54:30.012Z,4836
2022-11-05T15:55:24.303Z,5012
2022-11-05T15:56:24.316Z,4352
2022-11-05T15:57:24.324Z,4190
2022-11-05T15:59:24.511Z,4565
2022-11-05T16:00:24.318Z,4959
2022-11-05T16:01:24.480Z,5079
2022-11-05T16:02:24.391Z,4278
2022-11-05T16:04:24.499Z,4448
2022-11-05T16:05:24.303Z,4617
2022-11-05T16:06:24.304Z,5718
2022-11-05T16:07:24.294Z,4617
2022-11-05T16:09:24.473Z,5237
2022-11-05T16:10:24.315Z,4315
2022-11-05T16:11:24.319Z,5494
2022-11-05T16:12:24.331Z,4526
2022-11-05T16:14:24.509Z,5353
2022-11-05T16:15:24.301Z,4369
2022-11-05T16:16:24.322Z,5322
2022-11-05T16:17:24.327Z,4389
2022-11-05T16:19:24.511Z,5136
2022-11-05T16:20:24.307Z,4364
2022-11-05T16:21:24.333Z,4315
2022-11-05T16:22:24.331Z,4968
2022-11-05T16:24:29.146Z,5729
2022-11-05T16:25:24.341Z,4845
2022-11-05T16:26:41.458Z,5041
2022-11-05T16:27:24.310Z,4448
2022-11-05T16:29:24.506Z,6279
2022-11-05T16:30:24.314Z,5531
2022-11-05T16:31:24.319Z,4626
2022-11-05T16:32:29.656Z,5197
2022-11-05T16:34:24.512Z,4402
2022-11-05T16:35:24.310Z,6680
2022-11-05T16:36:24.320Z,5718
2022-11-05T16:37:24.344Z,5041
2022-11-05T16:39:24.507Z,6195